Meteo Giornale » Osservazioni meteo Italia » Treviso-Istrana

ore: 00:55 - Osservazioni Meteo Treviso-Istrana
Lat. 45° 41' N Lon. 12° 6' E Alt. 45 metri s.l.m.

sereno Europe/Rome

22 °C

Sereno

Temp. 24 Ore

22 °C

30 °C

Nord

0 Km/h

Dew point 19 °C

Umidità 83 %

Visibilità  10 Km

Il sole sorge alle ore 06:13

Il sole tramonta alle ore 20:17

Data e Ora Cielo e Fenomeni T °C DP °C Um. % Pres. hPa Vis. km Vento km/h
Oggi h: 00:55 sereno Sereno 22 19 83 1014 10 N 0
Ieri h: 23:55 sereno Sereno 23 19 78 1014 10 N 0
Ieri h: 22:55 sereno Sereno 24 19 73 1014 10 N 0
Ieri h: 21:55 sereno Sereno 25 19 69 1014 10 N 0
Ieri h: 20:55 sereno Sereno 27 19 61 1014 10 N 0
Ieri h: 19:55 sereno Sereno 28 17 51 1014 10 O/SO 7.4
Ieri h: 18:55 sereno Sereno 29 12 35 1014 10 E 7.4
Ieri h: 17:55 sereno Sereno 30 12 33 1014 10 N 5.5
Ieri h: 16:55 poco_nuvoloso Poco Nuvoloso 30 12 33 1014 10 E/NE 7.4
Ieri h: 15:55 poco_nuvoloso Poco Nuvoloso 30 12 33 1015 10 E 9.3
Ieri h: 14:55 poco_nuvoloso Poco Nuvoloso 30 13 35 1015 10 N 5.5
Ieri h: 13:55 poco_nuvoloso Poco Nuvoloso 30 13 35 1016 10 E 9.3
Ieri h: 12:55 poco_nuvoloso Poco Nuvoloso 30 13 35 1016 10 SE 11.1
Ieri h: 11:55 poco_nuvoloso Poco Nuvoloso 29 13 37 1017 10 E 13
Ieri h: 10:55 poco_nuvoloso Poco Nuvoloso 29 14 39 1017 10 E 14.8
Ieri h: 09:55 poco_nuvoloso Poco Nuvoloso 27 17 54 1016 10 E/NE 11.1
Ieri h: 08:55 nuvoloso Nuvoloso 26 18 61 1016 10 N 7.4
Ieri h: 07:55 nuvoloso Nuvoloso 23 18 73 1016 10 N 5.5
Ieri h: 06:55 nuvoloso Nuvoloso 22 18 78 1016 10 N 7.4
Ieri h: 05:55 nuvoloso Nuvoloso 22 17 73 1016 10 N 7.4
Ieri h: 04:55 sereno Sereno 22 18 78 1017 10 N 9.3
Ieri h: 03:55 sereno Sereno 22 16 68 1017 10 N 7.4
Ieri h: 02:55 sereno Sereno 22 18 78 1017 10 N 5.5
Ieri h: 01:55 molto_nuvoloso Molto Nuvoloso 22 17 73 1017 10 N/NE 7.4